createdAt,value
2019-01-26T00:02:46.361Z,10.57
2019-01-26T00:05:47.993Z,8.47
2019-01-26T00:08:49.435Z,9.60
2019-01-26T00:11:50.878Z,8.77
2019-01-26T00:14:53.715Z,9.53
2019-01-26T00:17:56.546Z,10.87
2019-01-26T00:20:57.957Z,9.07
2019-01-26T00:23:59.383Z,8.73
2019-01-26T00:27:00.885Z,9.90
2019-01-26T00:30:03.026Z,8.60
2019-01-26T00:33:04.617Z,8.97
2019-01-26T00:36:06.180Z,10.23
2019-01-26T00:39:10.576Z,8.77
2019-01-26T00:42:12.744Z,8.10
2019-01-26T00:45:14.623Z,7.90
2019-01-26T00:48:16.094Z,10.63
2019-01-26T00:51:17.527Z,9.47
2019-01-26T00:54:19.084Z,11.27
2019-01-26T00:57:20.521Z,8.47
2019-01-26T01:00:22.217Z,7.90
2019-01-26T01:03:23.658Z,8.53
2019-01-26T01:06:26.181Z,9.37
2019-01-26T01:09:28.173Z,9.93
2019-01-26T01:12:29.909Z,13.83
2019-01-26T01:15:31.842Z,9.27
2019-01-26T01:18:33.273Z,10.47
2019-01-26T01:21:36.638Z,10.43
2019-01-26T01:24:38.249Z,10.33
2019-01-26T01:27:39.647Z,10.70
2019-01-26T01:30:41.071Z,9.77
2019-01-26T01:33:42.546Z,9.50
2019-01-26T01:36:43.963Z,8.47
2019-01-26T01:39:47.579Z,9.43
2019-01-26T01:42:49.255Z,9.23
2019-01-26T01:45:50.644Z,9.93
2019-01-26T01:48:53.151Z,8.90
2019-01-26T01:51:55.415Z,8.73
2019-01-26T01:54:56.885Z,8.70
2019-01-26T01:57:58.354Z,8.53
2019-01-26T02:00:59.779Z,10.87
2019-01-26T02:04:01.266Z,8.67
2019-01-26T02:07:02.750Z,10.40
2019-01-26T02:10:05.419Z,9.73
2019-01-26T02:13:07.167Z,10.03
2019-01-26T02:16:08.601Z,9.50
2019-01-26T02:19:10.052Z,9.70
2019-01-26T02:22:11.451Z,9.73
2019-01-26T02:25:12.854Z,8.13
2019-01-26T02:28:16.250Z,7.90
2019-01-26T02:31:17.653Z,8.83
2019-01-26T02:34:19.184Z,10.57
2019-01-26T02:37:20.778Z,8.20
2019-01-26T02:40:22.227Z,10.53
2019-01-26T02:43:23.672Z,10.93
2019-01-26T02:46:25.169Z,8.73
2019-01-26T02:49:31.069Z,9.37
2019-01-26T02:52:32.547Z,9.93
2019-01-26T02:55:33.976Z,8.37
2019-01-26T02:58:35.368Z,10.70
2019-01-26T03:01:37.392Z,7.90
2019-01-26T03:04:39.154Z,9.70
2019-01-26T03:07:41.239Z,8.73
2019-01-26T03:10:46.124Z,9.03
2019-01-26T03:13:47.660Z,8.53
2019-01-26T03:16:50.601Z,8.23
2019-01-26T03:19:52.033Z,7.57
2019-01-26T03:22:53.493Z,8.87
2019-01-26T03:25:55.100Z,6.60
2019-01-26T03:28:56.501Z,9.73
2019-01-26T03:31:57.969Z,8.00
2019-01-26T03:34:59.383Z,7.70
2019-01-26T03:38:03.617Z,6.63
2019-01-26T03:41:06.190Z,7.57
2019-01-26T03:44:07.931Z,6.77
2019-01-26T03:47:13.735Z,8.07
2019-01-26T03:50:14.690Z,7.27
2019-01-26T03:53:17.107Z,8.23
2019-01-26T03:56:18.502Z,7.50
2019-01-26T03:59:19.922Z,7.80
2019-01-26T04:02:21.368Z,7.60
2019-01-26T04:05:22.995Z,7.10
2019-01-26T04:08:25.675Z,7.77
2019-01-26T04:11:29.796Z,6.77
2019-01-26T04:14:31.225Z,7.03
2019-01-26T04:17:32.715Z,5.93
2019-01-26T04:20:34.188Z,7.17
2019-01-26T04:23:35.625Z,6.00
2019-01-26T04:26:37.016Z,6.87
2019-01-26T04:29:38.498Z,5.67
2019-01-26T04:32:40.264Z,6.90
2019-01-26T04:35:41.706Z,6.03
2019-01-26T04:38:43.130Z,6.47
2019-01-26T04:41:44.604Z,7.40
2019-01-26T04:44:46.577Z,7.93
2019-01-26T04:47:48.461Z,6.53
2019-01-26T04:50:50.838Z,7.60
2019-01-26T04:53:52.238Z,7.17
2019-01-26T04:56:53.707Z,7.53
2019-01-26T04:59:55.190Z,6.27
2019-01-26T05:02:57.117Z,7.83
2019-01-26T05:05:58.687Z,7.63
2019-01-26T05:09:00.106Z,5.33
2019-01-26T05:12:01.511Z,6.97
2019-01-26T05:15:04.346Z,6.70
2019-01-26T05:18:05.818Z,6.53
2019-01-26T05:21:07.593Z,7.40
2019-01-26T05:24:10.456Z,6.97
2019-01-26T05:27:11.856Z,6.93
2019-01-26T05:30:20.662Z,5.83
2019-01-26T05:33:22.167Z,5.70
2019-01-26T05:36:23.750Z,7.13
2019-01-26T05:39:25.186Z,5.30
2019-01-26T05:42:26.587Z,7.13
2019-01-26T05:45:28.029Z,6.97
2019-01-26T05:48:29.486Z,6.13
2019-01-26T05:51:30.943Z,5.80
2019-01-26T05:54:32.300Z,5.40
2019-01-26T05:57:33.732Z,5.20
2019-01-26T06:00:37.764Z,6.60
2019-01-26T06:03:39.184Z,6.97
2019-01-26T06:06:41.839Z,5.37
2019-01-26T06:09:43.244Z,4.50
2019-01-26T06:12:46.999Z,4.73
2019-01-26T06:15:48.489Z,5.37
2019-01-26T06:18:56.179Z,6.47
2019-01-26T06:22:03.311Z,4.93
2019-01-26T06:25:06.384Z,4.67
2019-01-26T06:28:10.078Z,4.87
2019-01-26T06:31:11.513Z,4.23
2019-01-26T06:34:15.758Z,5.20
2019-01-26T06:37:17.155Z,4.90
2019-01-26T06:40:19.908Z,5.03
2019-01-26T06:43:21.318Z,5.40
2019-01-26T06:46:24.303Z,5.50
2019-01-26T06:49:27.866Z,4.17
2019-01-26T06:52:28.961Z,4.37
2019-01-26T06:55:30.470Z,5.43
2019-01-26T06:58:32.197Z,5.10
2019-01-26T07:01:34.122Z,4.70
2019-01-26T07:04:56.386Z,5.73
2019-01-26T07:07:58.226Z,4.17
2019-01-26T07:11:00.037Z,4.33
2019-01-26T07:14:01.545Z,4.50
2019-01-26T07:17:02.960Z,4.97
2019-01-26T07:20:05.325Z,4.77
2019-01-26T07:23:06.888Z,4.17
2019-01-26T07:26:08.319Z,5.03
2019-01-26T07:29:11.170Z,5.03
2019-01-26T07:32:12.559Z,4.10
2019-01-26T07:35:14.094Z,4.70
2019-01-26T07:38:15.501Z,5.77
2019-01-26T07:41:17.226Z,4.00
2019-01-26T07:44:18.730Z,3.37
2019-01-26T07:47:20.468Z,4.33
2019-01-26T07:50:22.475Z,3.87
2019-01-26T07:53:25.214Z,4.47
2019-01-26T07:56:26.666Z,4.80
2019-01-26T07:59:28.206Z,3.77
2019-01-26T08:02:28.082Z,4.63
2019-01-26T08:05:26.607Z,3.87
2019-01-26T08:08:24.952Z,3.40
2019-01-26T08:11:23.434Z,4.20
2019-01-26T08:14:22.148Z,3.80
2019-01-26T08:17:21.534Z,4.70
2019-01-26T08:20:22.994Z,3.77
2019-01-26T08:23:21.700Z,3.30
2019-01-26T08:26:20.429Z,3.83
2019-01-26T08:29:18.797Z,4.10
2019-01-26T08:32:17.276Z,4.77
2019-01-26T08:35:16.256Z,3.80
2019-01-26T08:38:14.774Z,3.73
2019-01-26T08:42:25.897Z,5.43
2019-01-26T08:45:28.708Z,3.97
2019-01-26T08:48:34.083Z,4.33
2019-01-26T08:51:46.691Z,3.93
2019-01-26T08:54:52.061Z,3.87
2019-01-26T08:57:59.642Z,4.07
2019-01-26T09:01:03.582Z,6.77
2019-01-26T09:04:20.079Z,5.37
2019-01-26T09:07:24.629Z,3.80
2019-01-26T09:10:27.883Z,4.30
2019-01-26T09:13:32.307Z,4.37
2019-01-26T09:16:39.435Z,5.17
2019-01-26T09:19:48.470Z,3.90
2019-01-26T09:22:50.024Z,5.37
2019-01-26T09:25:51.885Z,4.17
2019-01-26T09:28:59.399Z,3.57
2019-01-26T09:32:15.352Z,5.63
2019-01-26T09:35:26.672Z,3.77
2019-01-26T09:38:36.113Z,3.43
2019-01-26T09:41:41.398Z,3.37
2019-01-26T09:44:59.923Z,5.73
2019-01-26T09:47:56.823Z,7.33
2019-01-26T09:51:04.064Z,3.47
2019-01-26T09:54:12.349Z,5.53
2019-01-26T09:57:20.315Z,4.13
2019-01-26T10:00:29.441Z,5.10
2019-01-26T10:03:39.485Z,3.73
2019-01-26T10:06:44.639Z,5.00
2019-01-26T10:09:59.402Z,4.30
2019-01-26T10:13:02.813Z,3.47
2019-01-26T10:16:18.297Z,4.47
2019-01-26T10:19:23.607Z,7.33
2019-01-26T10:22:40.688Z,4.47
2019-01-26T10:25:50.435Z,4.20
2019-01-26T10:29:03.495Z,4.97
2019-01-26T10:32:29.706Z,3.67
2019-01-26T10:35:14.897Z,4.13
2019-01-26T10:38:31.504Z,3.33
2019-01-26T10:42:26.865Z,3.20
2019-01-26T10:45:27.857Z,4.20
2019-01-26T10:48:35.721Z,4.93
2019-01-26T10:51:57.220Z,3.90
2019-01-26T10:58:40.675Z,3.23
2019-01-26T11:02:01.636Z,3.10
2019-01-26T11:05:16.042Z,3.40
2019-01-26T11:08:25.140Z,3.73
2019-01-26T11:11:32.612Z,3.23
2019-01-26T11:15:02.019Z,3.93
2019-01-26T11:18:21.737Z,3.13
2019-01-26T11:21:30.355Z,3.90
2019-01-26T11:24:43.014Z,3.43
2019-01-26T11:28:07.988Z,5.37
2019-01-26T11:31:10.457Z,3.00
2019-01-26T11:34:19.949Z,3.43
2019-01-26T11:37:38.169Z,2.90
2019-01-26T11:41:00.893Z,3.40
2019-01-26T11:44:08.536Z,3.57
2019-01-26T11:47:23.074Z,3.23
2019-01-26T11:50:37.669Z,4.20
2019-01-26T11:53:40.756Z,3.10
2019-01-26T11:57:01.468Z,2.60
2019-01-26T12:00:46.662Z,3.30
2019-01-26T12:04:17.241Z,3.17
2019-01-26T12:07:50.694Z,3.37
2019-01-26T12:11:22.415Z,3.77
2019-01-26T12:14:25.698Z,3.10
2019-01-26T12:17:40.026Z,3.93
2019-01-26T12:20:50.657Z,3.27
2019-01-26T12:24:02.316Z,2.83
2019-01-26T12:27:20.648Z,3.80
2019-01-26T12:30:35.449Z,2.63
2019-01-26T12:33:39.129Z,3.63
2019-01-26T12:36:51.226Z,2.93
2019-01-26T12:40:19.497Z,3.20
2019-01-26T12:43:29.067Z,3.60
2019-01-26T12:46:40.062Z,5.70
2019-01-26T12:49:49.007Z,3.90
2019-01-26T12:53:10.668Z,3.10
2019-01-26T12:56:29.945Z,2.80
2019-01-26T12:59:36.670Z,2.93
2019-01-26T13:02:41.740Z,3.10
2019-01-26T13:05:59.224Z,4.47
2019-01-26T13:09:18.826Z,3.00
2019-01-26T13:12:16.829Z,7.30
2019-01-26T13:15:18.506Z,6.50
2019-01-26T13:18:20.054Z,6.90
2019-01-26T13:21:23.282Z,6.13
2019-01-26T13:24:27.625Z,5.23
2019-01-26T13:27:29.261Z,5.37
2019-01-26T13:30:30.744Z,6.07
2019-01-26T13:33:38.248Z,6.17
2019-01-26T13:36:44.259Z,6.57
2019-01-26T13:39:45.615Z,5.50
2019-01-26T13:42:47.108Z,5.43
2019-01-26T13:45:49.200Z,8.57
2019-01-26T13:48:50.673Z,5.10
2019-01-26T13:51:53.120Z,4.63
2019-01-26T13:54:54.542Z,4.17
2019-01-26T13:57:56.068Z,4.50
2019-01-26T14:00:57.575Z,5.20
2019-01-26T14:04:00.051Z,4.03
2019-01-26T14:07:04.369Z,6.67
2019-01-26T14:10:10.032Z,3.60
2019-01-26T14:13:13.819Z,4.80
2019-01-26T14:16:15.657Z,4.63
2019-01-26T14:19:17.199Z,4.10
2019-01-26T14:22:20.395Z,4.40
2019-01-26T14:25:21.994Z,4.07
2019-01-26T14:28:27.197Z,4.63
2019-01-26T14:31:28.806Z,3.57
2019-01-26T14:34:30.447Z,4.13
2019-01-26T14:37:32.506Z,4.67
2019-01-26T14:40:33.998Z,3.30
2019-01-26T14:43:35.642Z,5.57
2019-01-26T14:46:37.145Z,4.53
2019-01-26T14:49:38.708Z,4.83
2019-01-26T14:52:40.546Z,3.80
2019-01-26T14:55:43.832Z,4.27
2019-01-26T14:58:45.342Z,3.73
2019-01-26T15:01:49.716Z,3.40
2019-01-26T15:04:51.377Z,3.77
2019-01-26T15:07:52.885Z,3.73
2019-01-26T15:10:54.491Z,3.67
2019-01-26T15:13:56.306Z,3.40
2019-01-26T15:16:57.910Z,3.50
2019-01-26T15:20:05.789Z,3.47
2019-01-26T15:23:02.750Z,3.23
2019-01-26T15:26:04.319Z,3.13
2019-01-26T15:29:06.395Z,3.13
2019-01-26T15:32:07.994Z,3.30
2019-01-26T15:35:09.981Z,5.13
2019-01-26T15:38:12.926Z,3.40
2019-01-26T15:41:15.852Z,3.27
2019-01-26T15:44:20.325Z,3.63
2019-01-26T15:47:21.903Z,4.50
2019-01-26T15:50:23.390Z,3.40
2019-01-26T15:53:25.250Z,4.27
2019-01-26T15:56:26.745Z,4.50
2019-01-26T15:59:28.389Z,3.20
2019-01-26T16:02:30.638Z,3.23
2019-01-26T16:05:33.366Z,2.87
2019-01-26T16:08:35.236Z,3.30
2019-01-26T16:11:36.751Z,3.20
2019-01-26T16:14:38.381Z,3.47
2019-01-26T16:17:39.827Z,3.50
2019-01-26T16:20:41.300Z,2.73
2019-01-26T16:23:48.980Z,3.43
2019-01-26T16:26:50.472Z,3.07
2019-01-26T16:29:52.061Z,3.20
2019-01-26T16:32:53.543Z,4.03
2019-01-26T16:35:55.063Z,3.07
2019-01-26T16:38:56.921Z,3.57
2019-01-26T16:41:58.517Z,3.93
2019-01-26T16:45:00.025Z,3.77
2019-01-26T16:48:01.550Z,3.20
2019-01-26T16:51:03.090Z,3.87
2019-01-26T16:54:05.084Z,3.27
2019-01-26T16:57:06.846Z,3.90
2019-01-26T17:00:15.045Z,4.60
2019-01-26T17:03:16.645Z,4.40
2019-01-26T17:06:18.047Z,3.73
2019-01-26T17:09:19.565Z,4.13
2019-01-26T17:12:21.359Z,5.53
2019-01-26T17:15:22.976Z,3.93
2019-01-26T17:18:24.499Z,3.37
2019-01-26T17:21:27.933Z,4.00
2019-01-26T17:24:29.440Z,3.50
2019-01-26T17:27:31.623Z,5.10
2019-01-26T17:30:37.474Z,4.17
2019-01-26T17:33:39.011Z,5.07
2019-01-26T17:36:40.602Z,4.57
2019-01-26T17:39:42.139Z,3.87
2019-01-26T17:42:43.745Z,3.57
2019-01-26T17:45:45.632Z,4.53
2019-01-26T17:48:47.334Z,4.83
2019-01-26T17:51:48.822Z,7.10
2019-01-26T17:54:50.336Z,4.10
2019-01-26T17:57:51.764Z,4.37
2019-01-26T18:00:58.662Z,4.30
2019-01-26T18:04:00.223Z,4.60
2019-01-26T18:07:01.767Z,6.83
2019-01-26T18:10:04.373Z,4.10
2019-01-26T18:13:07.217Z,5.87
2019-01-26T18:16:09.690Z,4.73
2019-01-26T18:19:11.369Z,4.77
2019-01-26T18:22:13.150Z,6.03
2019-01-26T18:25:17.436Z,4.57
2019-01-26T18:28:18.940Z,3.80
2019-01-26T18:31:20.516Z,5.07
2019-01-26T18:34:22.069Z,4.13
2019-01-26T18:37:25.119Z,4.27
2019-01-26T18:40:28.466Z,5.50
2019-01-26T18:43:30.008Z,4.50
2019-01-26T18:46:34.828Z,4.23
2019-01-26T18:49:37.649Z,3.40
2019-01-26T18:52:39.224Z,4.10
2019-01-26T18:55:40.790Z,4.23
2019-01-26T18:58:42.345Z,3.90
2019-01-26T19:01:44.003Z,3.33
2019-01-26T19:04:51.935Z,3.30
2019-01-26T19:07:53.808Z,4.60
2019-01-26T19:10:57.421Z,3.97
2019-01-26T19:13:59.572Z,3.50
2019-01-26T19:17:03.452Z,3.73
2019-01-26T19:20:07.440Z,5.13
2019-01-26T19:23:10.734Z,3.63
2019-01-26T19:26:12.301Z,4.67
2019-01-26T19:29:13.856Z,4.80
2019-01-26T19:32:15.791Z,3.90
2019-01-26T19:35:17.508Z,3.97
2019-01-26T19:38:19.039Z,3.87
2019-01-26T19:41:21.850Z,4.07
2019-01-26T19:44:23.385Z,3.80
2019-01-26T19:47:24.975Z,3.43
2019-01-26T19:50:28.080Z,4.87
2019-01-26T19:53:29.635Z,3.67
2019-01-26T19:56:33.788Z,4.63
2019-01-26T19:59:39.395Z,4.03
2019-01-26T20:02:41.026Z,3.47
2019-01-26T20:05:48.068Z,3.30
2019-01-26T20:08:46.413Z,4.00
2019-01-26T20:11:48.053Z,4.20
2019-01-26T20:14:49.640Z,3.57
2019-01-26T20:17:51.843Z,3.83
2019-01-26T20:20:53.425Z,4.60
2019-01-26T20:23:57.591Z,2.73
2019-01-26T20:26:59.530Z,3.50
2019-01-26T20:30:01.329Z,4.90
2019-01-26T20:33:03.691Z,3.13
2019-01-26T20:36:05.273Z,3.07
2019-01-26T20:39:10.165Z,4.50
2019-01-26T20:42:14.530Z,3.23
2019-01-26T20:45:19.896Z,3.17
2019-01-26T20:48:21.441Z,3.60
2019-01-26T20:51:24.953Z,4.20
2019-01-26T20:54:29.338Z,3.40
2019-01-26T20:57:32.469Z,4.60
2019-01-26T21:00:34.162Z,3.10
2019-01-26T21:03:40.016Z,3.27
2019-01-26T21:06:41.651Z,4.80
2019-01-26T21:09:43.173Z,4.00
2019-01-26T21:12:44.888Z,4.10
2019-01-26T21:15:46.518Z,3.13
2019-01-26T21:18:48.066Z,3.30
2019-01-26T21:21:49.621Z,4.13
2019-01-26T21:24:51.164Z,4.90
2019-01-26T21:27:52.752Z,4.20
2019-01-26T21:30:54.637Z,6.40
2019-01-26T21:33:57.354Z,3.53
2019-01-26T21:37:03.517Z,4.13
2019-01-26T21:40:07.987Z,4.30
2019-01-26T21:43:09.491Z,3.43
2019-01-26T21:46:10.910Z,4.47
2019-01-26T21:49:13.741Z,3.73
2019-01-26T21:52:15.199Z,4.10
2019-01-26T21:55:21.473Z,3.70
2019-01-26T21:58:24.859Z,3.43
2019-01-26T22:01:29.398Z,5.17
2019-01-26T22:04:30.962Z,4.03
2019-01-26T22:07:32.493Z,3.67
2019-01-26T22:10:34.485Z,3.60
2019-01-26T22:13:38.888Z,3.97
2019-01-26T22:16:45.362Z,4.80
2019-01-26T22:19:48.428Z,3.30
2019-01-26T22:22:50.746Z,3.57
2019-01-26T22:25:52.244Z,4.57
2019-01-26T22:28:55.549Z,3.63
2019-01-26T22:31:57.159Z,3.83
2019-01-26T22:34:58.643Z,3.87
2019-01-26T22:38:00.667Z,3.47
2019-01-26T22:41:04.453Z,4.67
2019-01-26T22:44:07.521Z,2.87
2019-01-26T22:47:12.181Z,3.10
2019-01-26T22:50:16.539Z,3.20
2019-01-26T22:53:18.052Z,4.33
2019-01-26T22:56:19.714Z,3.53
2019-01-26T22:59:21.157Z,3.50
2019-01-26T23:02:25.436Z,3.27
2019-01-26T23:06:39.276Z,3.23
2019-01-26T23:10:28.433Z,2.90
2019-01-26T23:14:43.770Z,3.20
2019-01-26T23:18:28.269Z,3.83
2019-01-26T23:22:37.776Z,3.73
2019-01-26T23:26:40.775Z,3.43
2019-01-26T23:30:41.214Z,4.20
2019-01-26T23:33:44.561Z,4.90
2019-01-26T23:36:47.525Z,4.07
2019-01-26T23:39:49.209Z,4.13
2019-01-26T23:42:50.758Z,3.67
2019-01-26T23:45:52.671Z,3.43
2019-01-26T23:48:54.889Z,3.53
2019-01-26T23:51:56.408Z,3.37
2019-01-26T23:55:02.634Z,2.93
2019-01-26T23:58:04.214Z,3.03
